sensor_id;sensor_type;location;lat;lon;timestamp;P1;durP1;ratioP1;P2;durP2;ratioP2
57856;SDS011;43683;48.650;9.290;2023-11-19T00:02:12;7.88;;;5.32;;
57856;SDS011;43683;48.650;9.290;2023-11-19T00:04:37;7.38;;;5.20;;
57856;SDS011;43683;48.650;9.290;2023-11-19T00:07:06;9.02;;;4.78;;
57856;SDS011;43683;48.650;9.290;2023-11-19T00:09:33;6.85;;;4.65;;
57856;SDS011;43683;48.650;9.290;2023-11-19T00:11:59;6.85;;;5.10;;
57856;SDS011;43683;48.650;9.290;2023-11-19T00:14:25;7.80;;;5.22;;
57856;SDS011;43683;48.650;9.290;2023-11-19T00:16:51;6.45;;;4.78;;
57856;SDS011;43683;48.650;9.290;2023-11-19T00:19:18;6.78;;;4.15;;
57856;SDS011;43683;48.650;9.290;2023-11-19T00:21:44;6.18;;;3.97;;
57856;SDS011;43683;48.650;9.290;2023-11-19T00:24:10;9.35;;;3.70;;
57856;SDS011;43683;48.650;9.290;2023-11-19T00:26:37;7.70;;;4.13;;
57856;SDS011;43683;48.650;9.290;2023-11-19T00:29:03;6.55;;;4.20;;
57856;SDS011;43683;48.650;9.290;2023-11-19T00:31:28;6.43;;;4.68;;
57856;SDS011;43683;48.650;9.290;2023-11-19T00:33:54;6.90;;;4.30;;
57856;SDS011;43683;48.650;9.290;2023-11-19T00:36:20;7.25;;;3.83;;
57856;SDS011;43683;48.650;9.290;2023-11-19T00:38:45;7.90;;;4.82;;
57856;SDS011;43683;48.650;9.290;2023-11-19T00:41:11;6.63;;;4.22;;
57856;SDS011;43683;48.650;9.290;2023-11-19T00:43:37;6.97;;;3.90;;
57856;SDS011;43683;48.650;9.290;2023-11-19T00:46:03;5.28;;;3.90;;
57856;SDS011;43683;48.650;9.290;2023-11-19T00:48:32;5.65;;;3.30;;
57856;SDS011;43683;48.650;9.290;2023-11-19T00:50:57;6.53;;;3.72;;
57856;SDS011;43683;48.650;9.290;2023-11-19T00:53:23;6.53;;;3.53;;
57856;SDS011;43683;48.650;9.290;2023-11-19T00:55:48;5.55;;;3.17;;
57856;SDS011;43683;48.650;9.290;2023-11-19T00:58:14;4.53;;;2.97;;
57856;SDS011;43683;48.650;9.290;2023-11-19T01:00:39;5.03;;;3.30;;
57856;SDS011;43683;48.650;9.290;2023-11-19T01:03:05;3.88;;;2.58;;
57856;SDS011;43683;48.650;9.290;2023-11-19T01:05:32;3.67;;;2.70;;
57856;SDS011;43683;48.650;9.290;2023-11-19T01:07:58;4.57;;;2.88;;
57856;SDS011;43683;48.650;9.290;2023-11-19T01:10:23;6.78;;;2.72;;
57856;SDS011;43683;48.650;9.290;2023-11-19T01:12:50;4.05;;;3.05;;
57856;SDS011;43683;48.650;9.290;2023-11-19T01:15:16;4.10;;;3.00;;
57856;SDS011;43683;48.650;9.290;2023-11-19T01:17:43;5.18;;;3.00;;
57856;SDS011;43683;48.650;9.290;2023-11-19T01:20:09;3.83;;;2.47;;
57856;SDS011;43683;48.650;9.290;2023-11-19T01:22:38;2.95;;;2.55;;
57856;SDS011;43683;48.650;9.290;2023-11-19T01:25:03;3.78;;;2.65;;
57856;SDS011;43683;48.650;9.290;2023-11-19T01:27:30;3.55;;;2.55;;
57856;SDS011;43683;48.650;9.290;2023-11-19T01:29:56;3.15;;;2.38;;
57856;SDS011;43683;48.650;9.290;2023-11-19T01:32:21;3.60;;;2.20;;
57856;SDS011;43683;48.650;9.290;2023-11-19T01:34:49;3.67;;;2.58;;
57856;SDS011;43683;48.650;9.290;2023-11-19T01:37:14;3.78;;;2.58;;
57856;SDS011;43683;48.650;9.290;2023-11-19T01:39:43;3.33;;;2.42;;
57856;SDS011;43683;48.650;9.290;2023-11-19T01:42:09;2.70;;;2.47;;
57856;SDS011;43683;48.650;9.290;2023-11-19T01:44:37;3.42;;;2.22;;
57856;SDS011;43683;48.650;9.290;2023-11-19T01:47:02;4.18;;;2.50;;
57856;SDS011;43683;48.650;9.290;2023-11-19T01:49:29;3.38;;;2.30;;
57856;SDS011;43683;48.650;9.290;2023-11-19T01:51:57;3.42;;;2.40;;
57856;SDS011;43683;48.650;9.290;2023-11-19T01:54:22;3.67;;;2.47;;
57856;SDS011;43683;48.650;9.290;2023-11-19T01:56:48;3.67;;;2.40;;
57856;SDS011;43683;48.650;9.290;2023-11-19T01:59:14;4.15;;;2.63;;
57856;SDS011;43683;48.650;9.290;2023-11-19T02:01:41;3.33;;;2.47;;
57856;SDS011;43683;48.650;9.290;2023-11-19T02:04:08;3.78;;;2.20;;
57856;SDS011;43683;48.650;9.290;2023-11-19T02:06:34;4.78;;;2.10;;
57856;SDS011;43683;48.650;9.290;2023-11-19T02:09:02;5.53;;;2.20;;
57856;SDS011;43683;48.650;9.290;2023-11-19T02:11:32;4.05;;;2.20;;
57856;SDS011;43683;48.650;9.290;2023-11-19T02:14:00;3.20;;;2.10;;
57856;SDS011;43683;48.650;9.290;2023-11-19T02:16:25;2.63;;;2.03;;
57856;SDS011;43683;48.650;9.290;2023-11-19T02:18:51;3.15;;;2.10;;
57856;SDS011;43683;48.650;9.290;2023-11-19T02:21:16;3.25;;;2.00;;
57856;SDS011;43683;48.650;9.290;2023-11-19T02:23:43;2.13;;;1.92;;
57856;SDS011;43683;48.650;9.290;2023-11-19T02:26:18;2.95;;;2.20;;
57856;SDS011;43683;48.650;9.290;2023-11-19T02:28:53;2.95;;;1.92;;
57856;SDS011;43683;48.650;9.290;2023-11-19T02:31:19;3.70;;;2.20;;
57856;SDS011;43683;48.650;9.290;2023-11-19T02:33:45;2.67;;;1.95;;
57856;SDS011;43683;48.650;9.290;2023-11-19T02:36:10;3.45;;;2.20;;
57856;SDS011;43683;48.650;9.290;2023-11-19T02:38:36;5.43;;;2.65;;
57856;SDS011;43683;48.650;9.290;2023-11-19T02:41:06;2.70;;;2.17;;
57856;SDS011;43683;48.650;9.290;2023-11-19T02:43:32;2.38;;;2.17;;
57856;SDS011;43683;48.650;9.290;2023-11-19T02:46:02;2.53;;;1.88;;
57856;SDS011;43683;48.650;9.290;2023-11-19T02:48:31;2.72;;;2.20;;
57856;SDS011;43683;48.650;9.290;2023-11-19T02:50:57;4.03;;;1.77;;
57856;SDS011;43683;48.650;9.290;2023-11-19T02:53:23;2.35;;;1.50;;
57856;SDS011;43683;48.650;9.290;2023-11-19T02:55:50;2.38;;;1.90;;
57856;SDS011;43683;48.650;9.290;2023-11-19T02:58:16;1.63;;;1.38;;
57856;SDS011;43683;48.650;9.290;2023-11-19T03:00:49;2.00;;;1.58;;
57856;SDS011;43683;48.650;9.290;2023-11-19T03:03:25;2.42;;;1.50;;
57856;SDS011;43683;48.650;9.290;2023-11-19T03:06:06;1.40;;;1.30;;
57856;SDS011;43683;48.650;9.290;2023-11-19T03:08:35;1.40;;;1.30;;
57856;SDS011;43683;48.650;9.290;2023-11-19T03:11:00;1.63;;;1.50;;
57856;SDS011;43683;48.650;9.290;2023-11-19T03:13:26;1.58;;;1.48;;
57856;SDS011;43683;48.650;9.290;2023-11-19T03:15:52;2.10;;;1.30;;
57856;SDS011;43683;48.650;9.290;2023-11-19T03:18:19;1.42;;;1.33;;
57856;SDS011;43683;48.650;9.290;2023-11-19T03:20:45;1.50;;;1.40;;
57856;SDS011;43683;48.650;9.290;2023-11-19T03:23:12;1.50;;;1.40;;
57856;SDS011;43683;48.650;9.290;2023-11-19T03:25:37;1.90;;;1.60;;
57856;SDS011;43683;48.650;9.290;2023-11-19T03:28:03;2.97;;;1.52;;
57856;SDS011;43683;48.650;9.290;2023-11-19T03:30:29;1.35;;;1.20;;
57856;SDS011;43683;48.650;9.290;2023-11-19T03:32:55;1.48;;;1.38;;
57856;SDS011;43683;48.650;9.290;2023-11-19T03:35:27;1.35;;;1.25;;
57856;SDS011;43683;48.650;9.290;2023-11-19T03:37:54;1.60;;;1.30;;
57856;SDS011;43683;48.650;9.290;2023-11-19T03:40:19;1.38;;;1.10;;
57856;SDS011;43683;48.650;9.290;2023-11-19T03:42:45;2.53;;;1.20;;
57856;SDS011;43683;48.650;9.290;2023-11-19T03:45:11;1.30;;;1.20;;
57856;SDS011;43683;48.650;9.290;2023-11-19T03:47:37;1.60;;;1.30;;
57856;SDS011;43683;48.650;9.290;2023-11-19T03:50:03;1.23;;;1.13;;
57856;SDS011;43683;48.650;9.290;2023-11-19T03:52:30;1.92;;;1.08;;
57856;SDS011;43683;48.650;9.290;2023-11-19T03:54:55;1.17;;;1.10;;
57856;SDS011;43683;48.650;9.290;2023-11-19T03:57:22;1.95;;;1.30;;
57856;SDS011;43683;48.650;9.290;2023-11-19T03:59:48;2.00;;;1.08;;
57856;SDS011;43683;48.650;9.290;2023-11-19T04:02:13;1.88;;;1.30;;
57856;SDS011;43683;48.650;9.290;2023-11-19T04:04:40;1.40;;;1.30;;
57856;SDS011;43683;48.650;9.290;2023-11-19T04:07:05;2.40;;;1.30;;
57856;SDS011;43683;48.650;9.290;2023-11-19T04:09:31;3.05;;;1.30;;
57856;SDS011;43683;48.650;9.290;2023-11-19T04:12:01;2.70;;;1.30;;
57856;SDS011;43683;48.650;9.290;2023-11-19T04:14:26;1.15;;;1.10;;
57856;SDS011;43683;48.650;9.290;2023-11-19T04:16:52;1.27;;;1.17;;
57856;SDS011;43683;48.650;9.290;2023-11-19T04:19:18;1.17;;;1.08;;
57856;SDS011;43683;48.650;9.290;2023-11-19T04:21:44;1.20;;;1.10;;
57856;SDS011;43683;48.650;9.290;2023-11-19T04:24:10;1.40;;;1.30;;
57856;SDS011;43683;48.650;9.290;2023-11-19T04:26:43;1.95;;;1.30;;
57856;SDS011;43683;48.650;9.290;2023-11-19T04:29:11;0.98;;;0.98;;
57856;SDS011;43683;48.650;9.290;2023-11-19T04:31:38;1.20;;;1.20;;
57856;SDS011;43683;48.650;9.290;2023-11-19T04:34:04;1.20;;;1.10;;
57856;SDS011;43683;48.650;9.290;2023-11-19T04:36:31;1.25;;;1.10;;
57856;SDS011;43683;48.650;9.290;2023-11-19T04:39:00;1.35;;;1.20;;
57856;SDS011;43683;48.650;9.290;2023-11-19T04:41:26;1.13;;;1.02;;
57856;SDS011;43683;48.650;9.290;2023-11-19T04:43:53;1.10;;;1.00;;
57856;SDS011;43683;48.650;9.290;2023-11-19T04:46:18;2.65;;;1.20;;
57856;SDS011;43683;48.650;9.290;2023-11-19T04:48:44;0.82;;;0.82;;
57856;SDS011;43683;48.650;9.290;2023-11-19T04:51:10;1.05;;;0.90;;
57856;SDS011;43683;48.650;9.290;2023-11-19T04:53:35;2.00;;;1.00;;
57856;SDS011;43683;48.650;9.290;2023-11-19T04:56:07;1.10;;;1.00;;
57856;SDS011;43683;48.650;9.290;2023-11-19T04:58:33;1.10;;;1.00;;
57856;SDS011;43683;48.650;9.290;2023-11-19T05:01:00;1.00;;;1.00;;
57856;SDS011;43683;48.650;9.290;2023-11-19T05:03:26;1.08;;;1.00;;
57856;SDS011;43683;48.650;9.290;2023-11-19T05:05:52;1.25;;;1.15;;
57856;SDS011;43683;48.650;9.290;2023-11-19T05:08:18;1.17;;;0.90;;
57856;SDS011;43683;48.650;9.290;2023-11-19T05:10:44;1.20;;;0.90;;
57856;SDS011;43683;48.650;9.290;2023-11-19T05:13:09;0.80;;;0.80;;
57856;SDS011;43683;48.650;9.290;2023-11-19T05:15:35;1.25;;;0.90;;
57856;SDS011;43683;48.650;9.290;2023-11-19T05:18:00;0.82;;;0.82;;
57856;SDS011;43683;48.650;9.290;2023-11-19T05:20:26;0.98;;;0.90;;
57856;SDS011;43683;48.650;9.290;2023-11-19T05:22:51;0.80;;;0.80;;
57856;SDS011;43683;48.650;9.290;2023-11-19T05:25:18;0.63;;;0.63;;
57856;SDS011;43683;48.650;9.290;2023-11-19T05:27:45;1.45;;;1.02;;
57856;SDS011;43683;48.650;9.290;2023-11-19T05:30:11;1.10;;;0.90;;
57856;SDS011;43683;48.650;9.290;2023-11-19T05:32:36;0.80;;;0.80;;
57856;SDS011;43683;48.650;9.290;2023-11-19T05:35:02;3.03;;;0.88;;
57856;SDS011;43683;48.650;9.290;2023-11-19T05:37:28;1.20;;;0.70;;
57856;SDS011;43683;48.650;9.290;2023-11-19T05:39:53;0.60;;;0.60;;
57856;SDS011;43683;48.650;9.290;2023-11-19T05:42:19;0.70;;;0.70;;
57856;SDS011;43683;48.650;9.290;2023-11-19T05:44:45;0.60;;;0.60;;
57856;SDS011;43683;48.650;9.290;2023-11-19T05:47:11;0.80;;;0.80;;
57856;SDS011;43683;48.650;9.290;2023-11-19T05:49:36;0.93;;;0.90;;
57856;SDS011;43683;48.650;9.290;2023-11-19T05:52:02;0.80;;;0.80;;
57856;SDS011;43683;48.650;9.290;2023-11-19T05:54:28;0.75;;;0.75;;
57856;SDS011;43683;48.650;9.290;2023-11-19T05:56:54;0.70;;;0.70;;
57856;SDS011;43683;48.650;9.290;2023-11-19T05:59:20;1.00;;;0.90;;
57856;SDS011;43683;48.650;9.290;2023-11-19T06:01:47;0.80;;;0.80;;
57856;SDS011;43683;48.650;9.290;2023-11-19T06:04:13;0.77;;;0.77;;
57856;SDS011;43683;48.650;9.290;2023-11-19T06:06:38;1.25;;;1.20;;
57856;SDS011;43683;48.650;9.290;2023-11-19T06:09:05;0.90;;;0.90;;
57856;SDS011;43683;48.650;9.290;2023-11-19T06:11:31;0.82;;;0.82;;
57856;SDS011;43683;48.650;9.290;2023-11-19T06:13:58;0.93;;;0.88;;
57856;SDS011;43683;48.650;9.290;2023-11-19T06:16:24;1.42;;;0.88;;
57856;SDS011;43683;48.650;9.290;2023-11-19T06:18:50;0.80;;;0.80;;
57856;SDS011;43683;48.650;9.290;2023-11-19T06:21:15;0.95;;;0.73;;
57856;SDS011;43683;48.650;9.290;2023-11-19T06:23:41;0.77;;;0.77;;
57856;SDS011;43683;48.650;9.290;2023-11-19T06:26:07;2.25;;;0.82;;
57856;SDS011;43683;48.650;9.290;2023-11-19T06:28:33;0.95;;;0.70;;
57856;SDS011;43683;48.650;9.290;2023-11-19T06:30:59;0.65;;;0.65;;
57856;SDS011;43683;48.650;9.290;2023-11-19T06:33:25;0.70;;;0.70;;
57856;SDS011;43683;48.650;9.290;2023-11-19T06:35:52;0.80;;;0.65;;
57856;SDS011;43683;48.650;9.290;2023-11-19T06:38:17;1.20;;;0.60;;
57856;SDS011;43683;48.650;9.290;2023-11-19T06:40:43;0.95;;;0.80;;
57856;SDS011;43683;48.650;9.290;2023-11-19T06:43:09;1.00;;;1.00;;
57856;SDS011;43683;48.650;9.290;2023-11-19T06:45:34;1.10;;;1.00;;
57856;SDS011;43683;48.650;9.290;2023-11-19T06:48:02;0.95;;;0.95;;
57856;SDS011;43683;48.650;9.290;2023-11-19T06:50:29;1.08;;;1.00;;
57856;SDS011;43683;48.650;9.290;2023-11-19T06:52:54;0.73;;;0.73;;
57856;SDS011;43683;48.650;9.290;2023-11-19T06:55:20;2.53;;;0.80;;
57856;SDS011;43683;48.650;9.290;2023-11-19T06:57:45;1.65;;;0.80;;
57856;SDS011;43683;48.650;9.290;2023-11-19T07:00:11;0.70;;;0.70;;
57856;SDS011;43683;48.650;9.290;2023-11-19T07:02:37;0.80;;;0.80;;
57856;SDS011;43683;48.650;9.290;2023-11-19T07:05:02;0.70;;;0.70;;
57856;SDS011;43683;48.650;9.290;2023-11-19T07:07:30;0.80;;;0.80;;
57856;SDS011;43683;48.650;9.290;2023-11-19T07:09:58;1.00;;;0.88;;
57856;SDS011;43683;48.650;9.290;2023-11-19T07:12:24;1.42;;;0.85;;
57856;SDS011;43683;48.650;9.290;2023-11-19T07:14:51;2.65;;;0.90;;
57856;SDS011;43683;48.650;9.290;2023-11-19T07:17:18;1.65;;;1.13;;
57856;SDS011;43683;48.650;9.290;2023-11-19T07:22:10;0.82;;;0.82;;
57856;SDS011;43683;48.650;9.290;2023-11-19T07:24:38;0.77;;;0.77;;
57856;SDS011;43683;48.650;9.290;2023-11-19T07:27:04;0.80;;;0.80;;
57856;SDS011;43683;48.650;9.290;2023-11-19T07:29:29;1.25;;;0.88;;
57856;SDS011;43683;48.650;9.290;2023-11-19T07:31:56;1.17;;;0.90;;
57856;SDS011;43683;48.650;9.290;2023-11-19T07:34:22;2.42;;;1.00;;
57856;SDS011;43683;48.650;9.290;2023-11-19T07:36:47;2.50;;;1.10;;
57856;SDS011;43683;48.650;9.290;2023-11-19T07:39:13;2.60;;;1.02;;
57856;SDS011;43683;48.650;9.290;2023-11-19T07:41:38;1.73;;;1.30;;
57856;SDS011;43683;48.650;9.290;2023-11-19T07:44:04;0.93;;;0.90;;
57856;SDS011;43683;48.650;9.290;2023-11-19T07:46:29;1.13;;;0.90;;
57856;SDS011;43683;48.650;9.290;2023-11-19T07:48:55;2.33;;;0.88;;
57856;SDS011;43683;48.650;9.290;2023-11-19T07:51:20;0.90;;;0.90;;
57856;SDS011;43683;48.650;9.290;2023-11-19T07:53:46;0.90;;;0.90;;
57856;SDS011;43683;48.650;9.290;2023-11-19T07:56:12;0.88;;;0.80;;
57856;SDS011;43683;48.650;9.290;2023-11-19T07:58:37;0.80;;;0.80;;
57856;SDS011;43683;48.650;9.290;2023-11-19T08:01:03;1.10;;;0.70;;
57856;SDS011;43683;48.650;9.290;2023-11-19T08:03:28;1.27;;;0.80;;
57856;SDS011;43683;48.650;9.290;2023-11-19T08:05:59;1.05;;;0.80;;
57856;SDS011;43683;48.650;9.290;2023-11-19T08:08:24;1.27;;;0.65;;
57856;SDS011;43683;48.650;9.290;2023-11-19T08:10:50;0.80;;;0.80;;
57856;SDS011;43683;48.650;9.290;2023-11-19T08:13:17;0.80;;;0.80;;
57856;SDS011;43683;48.650;9.290;2023-11-19T08:15:43;0.80;;;0.80;;
57856;SDS011;43683;48.650;9.290;2023-11-19T08:18:08;0.75;;;0.73;;
57856;SDS011;43683;48.650;9.290;2023-11-19T08:20:34;1.38;;;0.80;;
57856;SDS011;43683;48.650;9.290;2023-11-19T08:23:00;0.93;;;0.80;;
57856;SDS011;43683;48.650;9.290;2023-11-19T08:25:28;1.27;;;0.93;;
57856;SDS011;43683;48.650;9.290;2023-11-19T08:27:54;0.70;;;0.70;;
57856;SDS011;43683;48.650;9.290;2023-11-19T08:30:19;1.30;;;0.90;;
57856;SDS011;43683;48.650;9.290;2023-11-19T08:32:45;1.15;;;0.70;;
57856;SDS011;43683;48.650;9.290;2023-11-19T08:35:10;1.25;;;1.00;;
57856;SDS011;43683;48.650;9.290;2023-11-19T08:37:36;1.77;;;1.05;;
57856;SDS011;43683;48.650;9.290;2023-11-19T08:40:02;1.38;;;0.95;;
57856;SDS011;43683;48.650;9.290;2023-11-19T08:42:29;1.30;;;0.80;;
57856;SDS011;43683;48.650;9.290;2023-11-19T08:44:55;1.10;;;1.00;;
57856;SDS011;43683;48.650;9.290;2023-11-19T08:47:20;0.98;;;0.93;;
57856;SDS011;43683;48.650;9.290;2023-11-19T08:49:47;1.02;;;0.80;;
57856;SDS011;43683;48.650;9.290;2023-11-19T08:52:16;1.15;;;0.70;;
57856;SDS011;43683;48.650;9.290;2023-11-19T08:54:42;1.60;;;0.93;;
57856;SDS011;43683;48.650;9.290;2023-11-19T08:57:08;1.60;;;0.88;;
57856;SDS011;43683;48.650;9.290;2023-11-19T08:59:34;0.93;;;0.90;;
57856;SDS011;43683;48.650;9.290;2023-11-19T09:01:59;0.95;;;0.70;;
57856;SDS011;43683;48.650;9.290;2023-11-19T09:04:25;1.10;;;1.02;;
57856;SDS011;43683;48.650;9.290;2023-11-19T09:06:50;1.10;;;0.70;;
57856;SDS011;43683;48.650;9.290;2023-11-19T09:09:16;2.03;;;0.90;;
57856;SDS011;43683;48.650;9.290;2023-11-19T09:11:41;1.60;;;0.90;;
57856;SDS011;43683;48.650;9.290;2023-11-19T09:14:07;0.70;;;0.70;;
57856;SDS011;43683;48.650;9.290;2023-11-19T09:16:33;0.80;;;0.80;;
57856;SDS011;43683;48.650;9.290;2023-11-19T09:18:59;1.05;;;0.95;;
57856;SDS011;43683;48.650;9.290;2023-11-19T09:21:25;0.73;;;0.73;;
57856;SDS011;43683;48.650;9.290;2023-11-19T09:23:51;0.70;;;0.70;;
57856;SDS011;43683;48.650;9.290;2023-11-19T09:28:44;0.80;;;0.80;;
57856;SDS011;43683;48.650;9.290;2023-11-19T09:31:16;2.25;;;0.80;;
57856;SDS011;43683;48.650;9.290;2023-11-19T09:33:42;0.73;;;0.73;;
57856;SDS011;43683;48.650;9.290;2023-11-19T09:36:08;1.02;;;0.90;;
57856;SDS011;43683;48.650;9.290;2023-11-19T09:38:35;1.60;;;1.00;;
57856;SDS011;43683;48.650;9.290;2023-11-19T09:41:06;0.95;;;0.80;;
57856;SDS011;43683;48.650;9.290;2023-11-19T09:43:36;0.85;;;0.70;;
57856;SDS011;43683;48.650;9.290;2023-11-19T09:46:06;0.82;;;0.70;;
57856;SDS011;43683;48.650;9.290;2023-11-19T09:48:35;0.65;;;0.65;;
57856;SDS011;43683;48.650;9.290;2023-11-19T09:51:05;0.65;;;0.65;;
57856;SDS011;43683;48.650;9.290;2023-11-19T09:53:31;0.80;;;0.80;;
57856;SDS011;43683;48.650;9.290;2023-11-19T09:55:59;0.60;;;0.60;;
57856;SDS011;43683;48.650;9.290;2023-11-19T09:58:28;1.15;;;0.60;;
57856;SDS011;43683;48.650;9.290;2023-11-19T10:00:57;1.20;;;1.10;;
57856;SDS011;43683;48.650;9.290;2023-11-19T10:03:24;1.75;;;1.00;;
57856;SDS011;43683;48.650;9.290;2023-11-19T10:08:17;1.40;;;0.77;;
57856;SDS011;43683;48.650;9.290;2023-11-19T10:10:43;0.80;;;0.80;;
57856;SDS011;43683;48.650;9.290;2023-11-19T10:13:09;1.10;;;1.00;;
57856;SDS011;43683;48.650;9.290;2023-11-19T10:15:35;0.80;;;0.80;;
57856;SDS011;43683;48.650;9.290;2023-11-19T10:18:02;0.80;;;0.80;;
57856;SDS011;43683;48.650;9.290;2023-11-19T10:23:00;0.73;;;0.73;;
57856;SDS011;43683;48.650;9.290;2023-11-19T10:25:26;2.47;;;0.82;;
57856;SDS011;43683;48.650;9.290;2023-11-19T10:30:23;1.75;;;0.90;;
57856;SDS011;43683;48.650;9.290;2023-11-19T10:33:05;0.95;;;0.70;;
57856;SDS011;43683;48.650;9.290;2023-11-19T10:35:36;0.77;;;0.77;;
57856;SDS011;43683;48.650;9.290;2023-11-19T10:38:21;0.70;;;0.70;;
57856;SDS011;43683;48.650;9.290;2023-11-19T10:40:48;0.70;;;0.70;;
57856;SDS011;43683;48.650;9.290;2023-11-19T10:43:15;1.05;;;0.60;;
57856;SDS011;43683;48.650;9.290;2023-11-19T10:45:42;0.60;;;0.60;;
57856;SDS011;43683;48.650;9.290;2023-11-19T10:48:08;0.63;;;0.63;;
57856;SDS011;43683;48.650;9.290;2023-11-19T10:50:34;1.38;;;0.70;;
57856;SDS011;43683;48.650;9.290;2023-11-19T10:53:01;2.45;;;1.05;;
57856;SDS011;43683;48.650;9.290;2023-11-19T10:55:29;0.65;;;0.65;;
57856;SDS011;43683;48.650;9.290;2023-11-19T10:58:00;1.45;;;0.50;;
57856;SDS011;43683;48.650;9.290;2023-11-19T11:00:30;1.02;;;0.60;;
57856;SDS011;43683;48.650;9.290;2023-11-19T11:03:14;0.50;;;0.50;;
57856;SDS011;43683;48.650;9.290;2023-11-19T11:05:46;1.58;;;0.60;;
57856;SDS011;43683;48.650;9.290;2023-11-19T11:08:12;0.43;;;0.43;;
57856;SDS011;43683;48.650;9.290;2023-11-19T11:10:48;0.93;;;0.70;;
57856;SDS011;43683;48.650;9.290;2023-11-19T11:13:18;0.75;;;0.70;;
57856;SDS011;43683;48.650;9.290;2023-11-19T11:15:44;0.50;;;0.50;;
57856;SDS011;43683;48.650;9.290;2023-11-19T11:18:14;0.70;;;0.70;;
57856;SDS011;43683;48.650;9.290;2023-11-19T11:20:39;0.50;;;0.50;;
57856;SDS011;43683;48.650;9.290;2023-11-19T11:26:17;0.70;;;0.70;;
57856;SDS011;43683;48.650;9.290;2023-11-19T11:29:05;0.60;;;0.60;;
57856;SDS011;43683;48.650;9.290;2023-11-19T11:34:50;0.70;;;0.47;;
57856;SDS011;43683;48.650;9.290;2023-11-19T11:37:32;1.70;;;0.80;;
57856;SDS011;43683;48.650;9.290;2023-11-19T11:40:16;1.50;;;0.70;;
57856;SDS011;43683;48.650;9.290;2023-11-19T11:42:43;1.48;;;0.70;;
57856;SDS011;43683;48.650;9.290;2023-11-19T11:45:10;0.68;;;0.68;;
57856;SDS011;43683;48.650;9.290;2023-11-19T11:50:14;2.55;;;0.90;;
57856;SDS011;43683;48.650;9.290;2023-11-19T11:55:27;2.13;;;1.00;;
57856;SDS011;43683;48.650;9.290;2023-11-19T11:57:54;2.40;;;0.80;;
57856;SDS011;43683;48.650;9.290;2023-11-19T12:00:21;1.48;;;0.60;;
57856;SDS011;43683;48.650;9.290;2023-11-19T12:02:51;1.30;;;0.70;;
57856;SDS011;43683;48.650;9.290;2023-11-19T12:05:16;0.60;;;0.60;;
57856;SDS011;43683;48.650;9.290;2023-11-19T12:07:44;1.20;;;0.60;;
57856;SDS011;43683;48.650;9.290;2023-11-19T12:10:20;0.80;;;0.60;;
57856;SDS011;43683;48.650;9.290;2023-11-19T12:12:47;0.93;;;0.70;;
57856;SDS011;43683;48.650;9.290;2023-11-19T12:15:12;0.50;;;0.50;;
57856;SDS011;43683;48.650;9.290;2023-11-19T12:17:43;1.27;;;0.60;;
57856;SDS011;43683;48.650;9.290;2023-11-19T12:20:16;0.90;;;0.70;;
57856;SDS011;43683;48.650;9.290;2023-11-19T12:25:10;0.82;;;0.50;;
57856;SDS011;43683;48.650;9.290;2023-11-19T12:27:40;2.13;;;0.60;;
57856;SDS011;43683;48.650;9.290;2023-11-19T12:30:08;0.57;;;0.50;;
57856;SDS011;43683;48.650;9.290;2023-11-19T12:32:40;1.45;;;0.70;;
57856;SDS011;43683;48.650;9.290;2023-11-19T12:35:07;1.40;;;0.50;;
57856;SDS011;43683;48.650;9.290;2023-11-19T12:37:45;1.20;;;0.55;;
57856;SDS011;43683;48.650;9.290;2023-11-19T12:40:19;1.42;;;1.00;;
57856;SDS011;43683;48.650;9.290;2023-11-19T12:42:51;2.13;;;0.80;;
57856;SDS011;43683;48.650;9.290;2023-11-19T12:45:18;0.60;;;0.60;;
57856;SDS011;43683;48.650;9.290;2023-11-19T12:47:45;2.13;;;1.15;;
57856;SDS011;43683;48.650;9.290;2023-11-19T12:50:16;3.00;;;0.70;;
57856;SDS011;43683;48.650;9.290;2023-11-19T12:52:57;0.68;;;0.50;;
57856;SDS011;43683;48.650;9.290;2023-11-19T12:55:27;0.40;;;0.40;;
57856;SDS011;43683;48.650;9.290;2023-11-19T12:57:54;0.95;;;0.50;;
57856;SDS011;43683;48.650;9.290;2023-11-19T13:00:23;0.65;;;0.50;;
57856;SDS011;43683;48.650;9.290;2023-11-19T13:02:54;0.95;;;0.52;;
57856;SDS011;43683;48.650;9.290;2023-11-19T13:07:59;0.43;;;0.43;;
57856;SDS011;43683;48.650;9.290;2023-11-19T13:10:29;1.38;;;0.80;;
57856;SDS011;43683;48.650;9.290;2023-11-19T13:13:02;1.50;;;1.00;;
57856;SDS011;43683;48.650;9.290;2023-11-19T13:15:33;0.60;;;0.50;;
57856;SDS011;43683;48.650;9.290;2023-11-19T13:17:59;1.40;;;0.60;;
57856;SDS011;43683;48.650;9.290;2023-11-19T13:20:25;1.08;;;0.68;;
57856;SDS011;43683;48.650;9.290;2023-11-19T13:22:58;0.77;;;0.77;;
57856;SDS011;43683;48.650;9.290;2023-11-19T13:25:25;0.57;;;0.57;;
57856;SDS011;43683;48.650;9.290;2023-11-19T13:27:51;0.63;;;0.60;;
57856;SDS011;43683;48.650;9.290;2023-11-19T13:30:17;1.27;;;0.77;;
57856;SDS011;43683;48.650;9.290;2023-11-19T13:32:43;1.95;;;0.93;;
57856;SDS011;43683;48.650;9.290;2023-11-19T13:35:11;1.02;;;0.60;;
57856;SDS011;43683;48.650;9.290;2023-11-19T13:37:37;0.90;;;0.60;;
57856;SDS011;43683;48.650;9.290;2023-11-19T13:40:03;1.13;;;0.60;;
57856;SDS011;43683;48.650;9.290;2023-11-19T13:42:29;3.20;;;1.00;;
57856;SDS011;43683;48.650;9.290;2023-11-19T13:44:55;1.35;;;0.60;;
57856;SDS011;43683;48.650;9.290;2023-11-19T13:47:21;2.70;;;0.70;;
57856;SDS011;43683;48.650;9.290;2023-11-19T13:49:47;1.45;;;0.80;;
57856;SDS011;43683;48.650;9.290;2023-11-19T13:52:12;1.55;;;0.70;;
57856;SDS011;43683;48.650;9.290;2023-11-19T13:54:38;0.98;;;0.80;;
57856;SDS011;43683;48.650;9.290;2023-11-19T13:57:03;1.40;;;0.80;;
57856;SDS011;43683;48.650;9.290;2023-11-19T13:59:29;2.33;;;0.80;;
57856;SDS011;43683;48.650;9.290;2023-11-19T14:01:57;1.52;;;0.70;;
57856;SDS011;43683;48.650;9.290;2023-11-19T14:04:23;2.20;;;0.80;;
57856;SDS011;43683;48.650;9.290;2023-11-19T14:06:49;1.38;;;0.70;;
57856;SDS011;43683;48.650;9.290;2023-11-19T14:09:14;2.03;;;0.90;;
57856;SDS011;43683;48.650;9.290;2023-11-19T14:11:40;0.85;;;0.60;;
57856;SDS011;43683;48.650;9.290;2023-11-19T14:14:07;0.88;;;0.70;;
57856;SDS011;43683;48.650;9.290;2023-11-19T14:16:33;0.90;;;0.80;;
57856;SDS011;43683;48.650;9.290;2023-11-19T14:18:59;0.50;;;0.50;;
57856;SDS011;43683;48.650;9.290;2023-11-19T14:21:24;1.50;;;0.68;;
57856;SDS011;43683;48.650;9.290;2023-11-19T14:23:51;1.55;;;1.35;;
57856;SDS011;43683;48.650;9.290;2023-11-19T14:26:17;1.15;;;0.70;;
57856;SDS011;43683;48.650;9.290;2023-11-19T14:28:43;1.05;;;0.85;;
57856;SDS011;43683;48.650;9.290;2023-11-19T14:31:08;0.60;;;0.60;;
57856;SDS011;43683;48.650;9.290;2023-11-19T14:33:34;1.08;;;0.80;;
57856;SDS011;43683;48.650;9.290;2023-11-19T14:36:01;1.38;;;0.80;;
57856;SDS011;43683;48.650;9.290;2023-11-19T14:38:26;0.70;;;0.70;;
57856;SDS011;43683;48.650;9.290;2023-11-19T14:40:52;1.30;;;0.70;;
57856;SDS011;43683;48.650;9.290;2023-11-19T14:43:18;1.33;;;0.93;;
57856;SDS011;43683;48.650;9.290;2023-11-19T14:45:43;2.75;;;0.80;;
57856;SDS011;43683;48.650;9.290;2023-11-19T14:48:09;0.73;;;0.73;;
57856;SDS011;43683;48.650;9.290;2023-11-19T14:50:35;0.75;;;0.75;;
57856;SDS011;43683;48.650;9.290;2023-11-19T14:53:00;1.50;;;0.90;;
57856;SDS011;43683;48.650;9.290;2023-11-19T14:55:26;1.42;;;0.88;;
57856;SDS011;43683;48.650;9.290;2023-11-19T14:57:52;0.82;;;0.80;;
57856;SDS011;43683;48.650;9.290;2023-11-19T15:00:18;0.80;;;0.80;;
57856;SDS011;43683;48.650;9.290;2023-11-19T15:02:44;2.67;;;1.00;;
57856;SDS011;43683;48.650;9.290;2023-11-19T15:05:10;0.88;;;0.65;;
57856;SDS011;43683;48.650;9.290;2023-11-19T15:07:36;1.98;;;1.48;;
57856;SDS011;43683;48.650;9.290;2023-11-19T15:10:02;0.90;;;0.80;;
57856;SDS011;43683;48.650;9.290;2023-11-19T15:12:29;1.00;;;0.90;;
57856;SDS011;43683;48.650;9.290;2023-11-19T15:14:54;1.08;;;0.90;;
57856;SDS011;43683;48.650;9.290;2023-11-19T15:17:20;1.00;;;0.80;;